sensor_id;sensor_type;location;lat;lon;timestamp;temperature;humidity
27016;DHT22;14557;0.000;0.000;2022-11-11T00:01:57;21.10;72.00
27016;DHT22;14557;0.000;0.000;2022-11-11T00:04:23;21.00;71.90
27016;DHT22;14557;0.000;0.000;2022-11-11T00:06:49;21.00;71.90
27016;DHT22;14557;0.000;0.000;2022-11-11T00:09:14;21.10;71.90
27016;DHT22;14557;0.000;0.000;2022-11-11T00:11:40;21.00;71.70
27016;DHT22;14557;0.000;0.000;2022-11-11T00:14:05;21.00;71.60
27016;DHT22;14557;0.000;0.000;2022-11-11T00:16:31;21.00;71.50
27016;DHT22;14557;0.000;0.000;2022-11-11T00:19:17;21.00;71.50
27016;DHT22;14557;0.000;0.000;2022-11-11T00:22:01;21.10;71.50
27016;DHT22;14557;0.000;0.000;2022-11-11T00:24:45;21.10;71.50
27016;DHT22;14557;0.000;0.000;2022-11-11T00:27:30;21.00;71.50
27016;DHT22;14557;0.000;0.000;2022-11-11T00:29:56;21.00;71.40
27016;DHT22;14557;0.000;0.000;2022-11-11T00:32:23;21.00;71.40
27016;DHT22;14557;0.000;0.000;2022-11-11T00:34:49;21.00;71.40
27016;DHT22;14557;0.000;0.000;2022-11-11T00:37:33;21.00;71.40
27016;DHT22;14557;0.000;0.000;2022-11-11T00:39:59;21.00;71.40
27016;DHT22;14557;0.000;0.000;2022-11-11T00:42:25;21.00;71.20
27016;DHT22;14557;0.000;0.000;2022-11-11T00:44:51;21.00;71.20
27016;DHT22;14557;0.000;0.000;2022-11-11T00:47:16;21.00;71.20
27016;DHT22;14557;0.000;0.000;2022-11-11T00:50:18;21.00;71.20
27016;DHT22;14557;0.000;0.000;2022-11-11T00:53:03;20.90;71.10
27016;DHT22;14557;0.000;0.000;2022-11-11T00:55:29;21.00;71.20
27016;DHT22;14557;0.000;0.000;2022-11-11T00:57:54;20.90;71.10
27016;DHT22;14557;0.000;0.000;2022-11-11T01:00:20;21.00;71.20
27016;DHT22;14557;0.000;0.000;2022-11-11T01:02:46;21.00;71.20
27016;DHT22;14557;0.000;0.000;2022-11-11T01:05:11;20.90;71.30
27016;DHT22;14557;0.000;0.000;2022-11-11T01:07:37;21.00;71.20
27016;DHT22;14557;0.000;0.000;2022-11-11T01:10:02;20.90;71.20
27016;DHT22;14557;0.000;0.000;2022-11-11T01:12:28;20.90;71.10
27016;DHT22;14557;0.000;0.000;2022-11-11T01:14:54;20.90;71.20
27016;DHT22;14557;0.000;0.000;2022-11-11T01:17:19;20.90;71.20
27016;DHT22;14557;0.000;0.000;2022-11-11T01:19:45;20.90;71.20
27016;DHT22;14557;0.000;0.000;2022-11-11T01:22:11;20.90;71.20
27016;DHT22;14557;0.000;0.000;2022-11-11T01:24:36;20.90;71.10
27016;DHT22;14557;0.000;0.000;2022-11-11T01:27:03;20.90;71.10
27016;DHT22;14557;0.000;0.000;2022-11-11T01:29:28;20.90;71.10
27016;DHT22;14557;0.000;0.000;2022-11-11T01:31:54;20.90;71.30
27016;DHT22;14557;0.000;0.000;2022-11-11T01:34:20;20.80;71.20
27016;DHT22;14557;0.000;0.000;2022-11-11T01:36:45;20.90;71.30
27016;DHT22;14557;0.000;0.000;2022-11-11T01:39:11;20.90;71.30
27016;DHT22;14557;0.000;0.000;2022-11-11T01:41:36;20.90;71.20
27016;DHT22;14557;0.000;0.000;2022-11-11T01:52:13;20.90;71.00
27016;DHT22;14557;0.000;0.000;2022-11-11T01:54:42;20.90;71.00
27016;DHT22;14557;0.000;0.000;2022-11-11T01:57:12;20.90;71.10
27016;DHT22;14557;0.000;0.000;2022-11-11T01:59:40;20.90;70.90
27016;DHT22;14557;0.000;0.000;2022-11-11T02:02:08;20.90;70.80
27016;DHT22;14557;0.000;0.000;2022-11-11T02:04:38;20.90;70.80
27016;DHT22;14557;0.000;0.000;2022-11-11T02:07:23;20.90;70.80
27016;DHT22;14557;0.000;0.000;2022-11-11T02:09:50;20.90;70.90
27016;DHT22;14557;0.000;0.000;2022-11-11T02:12:17;20.90;71.00
27016;DHT22;14557;0.000;0.000;2022-11-11T02:15:01;20.90;71.10
27016;DHT22;14557;0.000;0.000;2022-11-11T02:17:27;20.90;71.10
27016;DHT22;14557;0.000;0.000;2022-11-11T02:19:55;20.80;71.00
27016;DHT22;14557;0.000;0.000;2022-11-11T02:22:29;20.80;71.00
27016;DHT22;14557;0.000;0.000;2022-11-11T02:24:56;20.80;71.00
27016;DHT22;14557;0.000;0.000;2022-11-11T02:27:23;20.80;71.00
27016;DHT22;14557;0.000;0.000;2022-11-11T02:29:49;20.80;70.90
27016;DHT22;14557;0.000;0.000;2022-11-11T02:32:17;20.80;70.90
27016;DHT22;14557;0.000;0.000;2022-11-11T02:34:43;20.80;70.80
27016;DHT22;14557;0.000;0.000;2022-11-11T02:37:08;20.80;70.80
27016;DHT22;14557;0.000;0.000;2022-11-11T02:39:36;20.80;71.60
27016;DHT22;14557;0.000;0.000;2022-11-11T02:42:04;20.80;70.80
27016;DHT22;14557;0.000;0.000;2022-11-11T02:44:35;20.80;70.80
27016;DHT22;14557;0.000;0.000;2022-11-11T02:47:02;20.80;70.80
27016;DHT22;14557;0.000;0.000;2022-11-11T02:49:28;20.80;70.70
27016;DHT22;14557;0.000;0.000;2022-11-11T02:51:54;20.80;70.70
27016;DHT22;14557;0.000;0.000;2022-11-11T02:54:20;20.80;70.70
27016;DHT22;14557;0.000;0.000;2022-11-11T02:56:45;20.80;70.70
27016;DHT22;14557;0.000;0.000;2022-11-11T02:59:29;20.80;70.60
27016;DHT22;14557;0.000;0.000;2022-11-11T03:01:55;20.80;70.60
27016;DHT22;14557;0.000;0.000;2022-11-11T03:04:20;20.80;70.60
27016;DHT22;14557;0.000;0.000;2022-11-11T03:06:46;20.80;70.60
27016;DHT22;14557;0.000;0.000;2022-11-11T03:09:11;20.80;70.50
27016;DHT22;14557;0.000;0.000;2022-11-11T03:11:37;20.80;70.60
27016;DHT22;14557;0.000;0.000;2022-11-11T03:14:03;20.80;70.60
27016;DHT22;14557;0.000;0.000;2022-11-11T03:16:29;20.80;70.70
27016;DHT22;14557;0.000;0.000;2022-11-11T03:19:13;20.70;70.60
27016;DHT22;14557;0.000;0.000;2022-11-11T03:21:39;20.80;70.50
27016;DHT22;14557;0.000;0.000;2022-11-11T03:24:05;20.70;70.50
27016;DHT22;14557;0.000;0.000;2022-11-11T03:26:30;20.70;70.50
27016;DHT22;14557;0.000;0.000;2022-11-11T03:28:56;20.80;70.50
27016;DHT22;14557;0.000;0.000;2022-11-11T03:31:21;20.70;70.50
27016;DHT22;14557;0.000;0.000;2022-11-11T03:33:47;20.70;70.60
27016;DHT22;14557;0.000;0.000;2022-11-11T03:36:13;20.70;70.60
27016;DHT22;14557;0.000;0.000;2022-11-11T03:38:38;20.70;70.70
27016;DHT22;14557;0.000;0.000;2022-11-11T03:41:04;20.70;70.80
27016;DHT22;14557;0.000;0.000;2022-11-11T03:43:31;20.70;70.80
27016;DHT22;14557;0.000;0.000;2022-11-11T03:45:57;20.70;71.00
27016;DHT22;14557;0.000;0.000;2022-11-11T03:48:23;20.70;71.10
27016;DHT22;14557;0.000;0.000;2022-11-11T03:50:49;20.70;71.10
27016;DHT22;14557;0.000;0.000;2022-11-11T03:53:16;20.70;71.10
27016;DHT22;14557;0.000;0.000;2022-11-11T03:55:42;20.70;70.90
27016;DHT22;14557;0.000;0.000;2022-11-11T03:58:08;20.70;70.80
27016;DHT22;14557;0.000;0.000;2022-11-11T04:00:33;20.60;70.70
27016;DHT22;14557;0.000;0.000;2022-11-11T04:03:03;20.60;70.80
27016;DHT22;14557;0.000;0.000;2022-11-11T04:05:48;20.60;70.70
27016;DHT22;14557;0.000;0.000;2022-11-11T04:08:32;20.60;70.70
27016;DHT22;14557;0.000;0.000;2022-11-11T04:11:38;20.60;70.70
27016;DHT22;14557;0.000;0.000;2022-11-11T04:14:03;20.60;70.70
27016;DHT22;14557;0.000;0.000;2022-11-11T04:16:47;20.60;70.80
27016;DHT22;14557;0.000;0.000;2022-11-11T04:19:13;20.60;70.70
27016;DHT22;14557;0.000;0.000;2022-11-11T04:21:57;20.60;70.70
27016;DHT22;14557;0.000;0.000;2022-11-11T04:24:23;20.60;70.80
27016;DHT22;14557;0.000;0.000;2022-11-11T04:27:07;20.60;70.80
27016;DHT22;14557;0.000;0.000;2022-11-11T04:29:33;20.60;70.80
27016;DHT22;14557;0.000;0.000;2022-11-11T04:32:03;20.60;70.80
27016;DHT22;14557;0.000;0.000;2022-11-11T04:34:51;20.60;70.80
27016;DHT22;14557;0.000;0.000;2022-11-11T04:37:18;20.60;70.80
27016;DHT22;14557;0.000;0.000;2022-11-11T04:39:43;20.60;70.80
27016;DHT22;14557;0.000;0.000;2022-11-11T04:42:28;20.60;70.80
27016;DHT22;14557;0.000;0.000;2022-11-11T04:44:55;20.60;70.80
27016;DHT22;14557;0.000;0.000;2022-11-11T04:47:51;20.60;70.80
27016;DHT22;14557;0.000;0.000;2022-11-11T04:50:17;20.60;70.80
27016;DHT22;14557;0.000;0.000;2022-11-11T04:52:42;20.60;70.80
27016;DHT22;14557;0.000;0.000;2022-11-11T04:55:08;20.60;70.90
27016;DHT22;14557;0.000;0.000;2022-11-11T04:57:52;20.60;71.10
27016;DHT22;14557;0.000;0.000;2022-11-11T05:00:17;20.60;71.10
27016;DHT22;14557;0.000;0.000;2022-11-11T05:02:43;20.50;71.20
27016;DHT22;14557;0.000;0.000;2022-11-11T05:05:28;20.50;71.30
27016;DHT22;14557;0.000;0.000;2022-11-11T05:08:14;20.50;71.30
27016;DHT22;14557;0.000;0.000;2022-11-11T05:10:58;20.50;71.40
27016;DHT22;14557;0.000;0.000;2022-11-11T05:13:24;20.50;71.40
27016;DHT22;14557;0.000;0.000;2022-11-11T05:16:12;20.50;71.60
27016;DHT22;14557;0.000;0.000;2022-11-11T05:19:01;20.50;71.60
27016;DHT22;14557;0.000;0.000;2022-11-11T05:21:45;20.50;71.50
27016;DHT22;14557;0.000;0.000;2022-11-11T05:24:11;20.50;71.30
27016;DHT22;14557;0.000;0.000;2022-11-11T05:26:55;20.50;71.20
27016;DHT22;14557;0.000;0.000;2022-11-11T05:29:20;20.50;71.10
27016;DHT22;14557;0.000;0.000;2022-11-11T05:31:46;20.40;71.10
27016;DHT22;14557;0.000;0.000;2022-11-11T05:34:11;20.40;71.10
27016;DHT22;14557;0.000;0.000;2022-11-11T05:36:37;20.40;71.10
27016;DHT22;14557;0.000;0.000;2022-11-11T05:39:03;20.40;71.10
27016;DHT22;14557;0.000;0.000;2022-11-11T05:41:28;20.40;71.10
27016;DHT22;14557;0.000;0.000;2022-11-11T05:43:54;20.40;71.10
27016;DHT22;14557;0.000;0.000;2022-11-11T05:46:19;20.40;71.10
27016;DHT22;14557;0.000;0.000;2022-11-11T05:48:45;20.40;71.10
27016;DHT22;14557;0.000;0.000;2022-11-11T05:51:36;20.40;71.10
27016;DHT22;14557;0.000;0.000;2022-11-11T05:54:02;20.40;71.20
27016;DHT22;14557;0.000;0.000;2022-11-11T05:56:28;20.40;71.10
27016;DHT22;14557;0.000;0.000;2022-11-11T05:58:53;20.40;71.10
27016;DHT22;14557;0.000;0.000;2022-11-11T06:01:19;20.40;71.10
27016;DHT22;14557;0.000;0.000;2022-11-11T06:03:44;20.40;71.20
27016;DHT22;14557;0.000;0.000;2022-11-11T06:06:10;20.40;71.20
27016;DHT22;14557;0.000;0.000;2022-11-11T06:08:36;20.40;71.20
27016;DHT22;14557;0.000;0.000;2022-11-11T06:11:02;20.40;71.20
27016;DHT22;14557;0.000;0.000;2022-11-11T06:13:27;20.40;71.30
27016;DHT22;14557;0.000;0.000;2022-11-11T06:15:54;20.40;71.40
27016;DHT22;14557;0.000;0.000;2022-11-11T06:18:20;20.40;71.50
27016;DHT22;14557;0.000;0.000;2022-11-11T06:20:45;20.40;71.60
27016;DHT22;14557;0.000;0.000;2022-11-11T06:23:11;20.40;71.60
27016;DHT22;14557;0.000;0.000;2022-11-11T06:25:36;20.40;71.90
27016;DHT22;14557;0.000;0.000;2022-11-11T06:28:21;20.40;72.00
27016;DHT22;14557;0.000;0.000;2022-11-11T06:30:46;20.30;71.90
27016;DHT22;14557;0.000;0.000;2022-11-11T06:33:12;20.30;72.00
27016;DHT22;14557;0.000;0.000;2022-11-11T06:35:38;20.30;72.10
27016;DHT22;14557;0.000;0.000;2022-11-11T06:38:05;20.30;72.10
27016;DHT22;14557;0.000;0.000;2022-11-11T06:40:30;20.30;72.20
27016;DHT22;14557;0.000;0.000;2022-11-11T06:42:56;20.30;72.30
27016;DHT22;14557;0.000;0.000;2022-11-11T06:45:23;20.30;72.40
27016;DHT22;14557;0.000;0.000;2022-11-11T06:47:48;20.30;72.30
27016;DHT22;14557;0.000;0.000;2022-11-11T06:50:14;20.30;72.40
27016;DHT22;14557;0.000;0.000;2022-11-11T06:52:40;20.20;72.30
27016;DHT22;14557;0.000;0.000;2022-11-11T06:55:05;20.30;72.60
27016;DHT22;14557;0.000;0.000;2022-11-11T06:57:32;20.20;72.40
27016;DHT22;14557;0.000;0.000;2022-11-11T06:59:57;20.20;72.50
27016;DHT22;14557;0.000;0.000;2022-11-11T07:02:23;20.20;72.60
27016;DHT22;14557;0.000;0.000;2022-11-11T07:04:49;20.20;72.70
27016;DHT22;14557;0.000;0.000;2022-11-11T07:07:14;20.20;72.60
27016;DHT22;14557;0.000;0.000;2022-11-11T07:09:41;20.20;72.70
27016;DHT22;14557;0.000;0.000;2022-11-11T07:12:07;20.20;72.80
27016;DHT22;14557;0.000;0.000;2022-11-11T07:14:33;20.20;72.70
27016;DHT22;14557;0.000;0.000;2022-11-11T07:16:58;20.20;72.90
27016;DHT22;14557;0.000;0.000;2022-11-11T07:19:24;20.20;72.90
27016;DHT22;14557;0.000;0.000;2022-11-11T07:21:49;20.20;72.90
27016;DHT22;14557;0.000;0.000;2022-11-11T07:24:15;20.20;72.90
27016;DHT22;14557;0.000;0.000;2022-11-11T07:26:41;20.20;72.90
27016;DHT22;14557;0.000;0.000;2022-11-11T07:29:07;20.20;73.70
27016;DHT22;14557;0.000;0.000;2022-11-11T07:31:32;20.10;73.10
27016;DHT22;14557;0.000;0.000;2022-11-11T07:33:58;20.10;73.00
27016;DHT22;14557;0.000;0.000;2022-11-11T07:36:24;20.10;73.00
27016;DHT22;14557;0.000;0.000;2022-11-11T07:38:49;20.10;73.00
27016;DHT22;14557;0.000;0.000;2022-11-11T07:41:15;20.10;73.00
27016;DHT22;14557;0.000;0.000;2022-11-11T07:43:40;20.10;73.00
27016;DHT22;14557;0.000;0.000;2022-11-11T07:46:06;20.10;73.00
27016;DHT22;14557;0.000;0.000;2022-11-11T07:48:32;20.10;73.10
27016;DHT22;14557;0.000;0.000;2022-11-11T07:50:57;20.10;73.00
27016;DHT22;14557;0.000;0.000;2022-11-11T07:53:23;20.10;73.00
27016;DHT22;14557;0.000;0.000;2022-11-11T07:55:50;20.10;73.10
27016;DHT22;14557;0.000;0.000;2022-11-11T07:58:16;20.10;73.10
27016;DHT22;14557;0.000;0.000;2022-11-11T08:00:41;20.10;73.20
27016;DHT22;14557;0.000;0.000;2022-11-11T08:03:07;20.10;73.10
27016;DHT22;14557;0.000;0.000;2022-11-11T08:05:33;20.10;73.10
27016;DHT22;14557;0.000;0.000;2022-11-11T08:08:05;20.10;73.20
27016;DHT22;14557;0.000;0.000;2022-11-11T08:10:31;20.10;73.20
27016;DHT22;14557;0.000;0.000;2022-11-11T08:12:57;20.10;73.20
27016;DHT22;14557;0.000;0.000;2022-11-11T08:15:42;20.10;73.20
27016;DHT22;14557;0.000;0.000;2022-11-11T08:18:07;20.10;73.20
27016;DHT22;14557;0.000;0.000;2022-11-11T08:20:33;20.10;73.30
27016;DHT22;14557;0.000;0.000;2022-11-11T08:22:58;20.10;73.30
27016;DHT22;14557;0.000;0.000;2022-11-11T08:25:24;20.10;73.30
27016;DHT22;14557;0.000;0.000;2022-11-11T08:27:57;20.10;73.30
27016;DHT22;14557;0.000;0.000;2022-11-11T08:30:23;20.00;73.30
27016;DHT22;14557;0.000;0.000;2022-11-11T08:32:55;20.00;73.40
27016;DHT22;14557;0.000;0.000;2022-11-11T08:35:21;20.10;73.40
27016;DHT22;14557;0.000;0.000;2022-11-11T08:37:46;20.00;73.40
27016;DHT22;14557;0.000;0.000;2022-11-11T08:40:12;20.10;77.60
27016;DHT22;14557;0.000;0.000;2022-11-11T08:42:37;20.30;85.70
27016;DHT22;14557;0.000;0.000;2022-11-11T08:45:03;20.40;76.30
27016;DHT22;14557;0.000;0.000;2022-11-11T08:47:29;20.50;77.10
27016;DHT22;14557;0.000;0.000;2022-11-11T08:49:54;20.40;75.90
27016;DHT22;14557;0.000;0.000;2022-11-11T08:52:20;20.40;75.50
27016;DHT22;14557;0.000;0.000;2022-11-11T08:54:46;20.40;75.40
27016;DHT22;14557;0.000;0.000;2022-11-11T08:57:11;20.40;76.30
27016;DHT22;14557;0.000;0.000;2022-11-11T08:59:37;20.50;85.70
27016;DHT22;14557;0.000;0.000;2022-11-11T09:02:02;20.50;82.50
27016;DHT22;14557;0.000;0.000;2022-11-11T09:04:28;20.60;83.60
27016;DHT22;14557;0.000;0.000;2022-11-11T09:06:54;20.50;80.10
27016;DHT22;14557;0.000;0.000;2022-11-11T09:09:19;20.50;78.80
27016;DHT22;14557;0.000;0.000;2022-11-11T09:11:45;20.50;84.40
27016;DHT22;14557;0.000;0.000;2022-11-11T09:14:10;20.50;80.70
27016;DHT22;14557;0.000;0.000;2022-11-11T09:16:36;20.50;78.70
27016;DHT22;14557;0.000;0.000;2022-11-11T09:19:02;20.50;78.10
27016;DHT22;14557;0.000;0.000;2022-11-11T09:21:27;20.40;79.50
27016;DHT22;14557;0.000;0.000;2022-11-11T09:23:53;20.50;79.40
27016;DHT22;14557;0.000;0.000;2022-11-11T09:26:18;20.50;78.80
27016;DHT22;14557;0.000;0.000;2022-11-11T09:28:44;20.50;78.60
27016;DHT22;14557;0.000;0.000;2022-11-11T09:31:09;20.50;78.40
27016;DHT22;14557;0.000;0.000;2022-11-11T09:33:35;20.50;78.10
27016;DHT22;14557;0.000;0.000;2022-11-11T09:36:01;20.50;77.80
27016;DHT22;14557;0.000;0.000;2022-11-11T09:38:26;20.50;77.60
27016;DHT22;14557;0.000;0.000;2022-11-11T09:51:05;20.60;76.90
27016;DHT22;14557;0.000;0.000;2022-11-11T09:53:37;20.60;76.40
27016;DHT22;14557;0.000;0.000;2022-11-11T09:56:13;20.60;76.10
27016;DHT22;14557;0.000;0.000;2022-11-11T09:58:42;20.60;79.10
27016;DHT22;14557;0.000;0.000;2022-11-11T10:01:26;20.70;76.20
27016;DHT22;14557;0.000;0.000;2022-11-11T10:04:07;20.70;77.30
27016;DHT22;14557;0.000;0.000;2022-11-11T10:06:38;20.70;75.30
27016;DHT22;14557;0.000;0.000;2022-11-11T10:14:32;20.80;76.90
27016;DHT22;14557;0.000;0.000;2022-11-11T10:19:37;20.80;75.10
27016;DHT22;14557;0.000;0.000;2022-11-11T10:22:11;20.80;74.60
27016;DHT22;14557;0.000;0.000;2022-11-11T10:24:40;20.70;74.50
27016;DHT22;14557;0.000;0.000;2022-11-11T10:27:10;20.80;74.60
27016;DHT22;14557;0.000;0.000;2022-11-11T10:29:39;20.70;74.50
27016;DHT22;14557;0.000;0.000;2022-11-11T10:34:37;20.80;74.50
27016;DHT22;14557;0.000;0.000;2022-11-11T10:37:02;20.70;74.30
27016;DHT22;14557;0.000;0.000;2022-11-11T10:42:12;20.70;74.00
27016;DHT22;14557;0.000;0.000;2022-11-11T10:44:40;20.70;73.90
27016;DHT22;14557;0.000;0.000;2022-11-11T10:49:39;20.70;73.90
27016;DHT22;14557;0.000;0.000;2022-11-11T10:54:40;20.80;74.20
27016;DHT22;14557;0.000;0.000;2022-11-11T11:00:02;20.80;74.10
27016;DHT22;14557;0.000;0.000;2022-11-11T11:05:04;20.80;74.10
27016;DHT22;14557;0.000;0.000;2022-11-11T11:07:36;20.80;74.10
27016;DHT22;14557;0.000;0.000;2022-11-11T11:15:30;20.80;75.20
27016;DHT22;14557;0.000;0.000;2022-11-11T11:17:58;20.80;74.70
27016;DHT22;14557;0.000;0.000;2022-11-11T11:20:24;20.90;75.00
27016;DHT22;14557;0.000;0.000;2022-11-11T11:22:50;20.90;74.90
27016;DHT22;14557;0.000;0.000;2022-11-11T11:25:18;20.90;74.30
27016;DHT22;14557;0.000;0.000;2022-11-11T11:27:44;20.90;74.10
27016;DHT22;14557;0.000;0.000;2022-11-11T11:30:11;20.90;74.10
27016;DHT22;14557;0.000;0.000;2022-11-11T11:32:37;20.90;74.20
27016;DHT22;14557;0.000;0.000;2022-11-11T11:35:03;20.90;73.90
27016;DHT22;14557;0.000;0.000;2022-11-11T11:37:28;20.90;73.70
27016;DHT22;14557;0.000;0.000;2022-11-11T11:40:01;21.00;73.80
27016;DHT22;14557;0.000;0.000;2022-11-11T11:42:31;21.00;73.70
27016;DHT22;14557;0.000;0.000;2022-11-11T11:44:56;21.00;73.80
27016;DHT22;14557;0.000;0.000;2022-11-11T11:47:35;21.00;73.80
27016;DHT22;14557;0.000;0.000;2022-11-11T12:05:44;21.10;74.10
27016;DHT22;14557;0.000;0.000;2022-11-11T12:08:18;21.20;74.80
27016;DHT22;14557;0.000;0.000;2022-11-11T12:11:49;21.30;75.40
27016;DHT22;14557;0.000;0.000;2022-11-11T12:13:46;21.30;75.50
27016;DHT22;14557;0.000;0.000;2022-11-11T12:19:38;21.30;77.20
27016;DHT22;14557;0.000;0.000;2022-11-11T12:21:55;21.30;78.00
27016;DHT22;14557;0.000;0.000;2022-11-11T12:27:44;21.40;77.80
27016;DHT22;14557;0.000;0.000;2022-11-11T12:40:16;21.30;77.30
27016;DHT22;14557;0.000;0.000;2022-11-11T12:47:36;21.30;76.50
27016;DHT22;14557;0.000;0.000;2022-11-11T12:52:44;21.30;79.90
27016;DHT22;14557;0.000;0.000;2022-11-11T13:00:50;21.30;81.00
27016;DHT22;14557;0.000;0.000;2022-11-11T13:10:50;21.40;78.80
27016;DHT22;14557;0.000;0.000;2022-11-11T13:16:00;21.40;79.00
27016;DHT22;14557;0.000;0.000;2022-11-11T13:18:45;21.40;80.60
27016;DHT22;14557;0.000;0.000;2022-11-11T13:21:15;21.40;80.70
27016;DHT22;14557;0.000;0.000;2022-11-11T13:23:42;21.50;81.10
27016;DHT22;14557;0.000;0.000;2022-11-11T13:26:15;21.50;82.80
27016;DHT22;14557;0.000;0.000;2022-11-11T13:28:46;21.50;88.10
27016;DHT22;14557;0.000;0.000;2022-11-11T13:33:43;21.60;92.80
27016;DHT22;14557;0.000;0.000;2022-11-11T13:36:17;21.70;95.10
27016;DHT22;14557;0.000;0.000;2022-11-11T13:41:09;21.80;95.90
27016;DHT22;14557;0.000;0.000;2022-11-11T13:43:44;21.90;96.10
27016;DHT22;14557;0.000;0.000;2022-11-11T13:46:22;21.80;92.70
27016;DHT22;14557;0.000;0.000;2022-11-11T13:48:53;21.80;91.20
27016;DHT22;14557;0.000;0.000;2022-11-11T13:53:52;21.80;88.20
27016;DHT22;14557;0.000;0.000;2022-11-11T13:56:37;21.80;86.60
27016;DHT22;14557;0.000;0.000;2022-11-11T13:59:04;21.70;85.00
27016;DHT22;14557;0.000;0.000;2022-11-11T14:01:34;21.70;83.40
27016;DHT22;14557;0.000;0.000;2022-11-11T14:04:04;21.70;82.90
27016;DHT22;14557;0.000;0.000;2022-11-11T14:06:35;21.70;82.40
27016;DHT22;14557;0.000;0.000;2022-11-11T14:09:01;21.70;84.10
27016;DHT22;14557;0.000;0.000;2022-11-11T14:11:28;21.70;93.00
27016;DHT22;14557;0.000;0.000;2022-11-11T14:13:55;21.90;95.20
27016;DHT22;14557;0.000;0.000;2022-11-11T14:19:41;21.80;90.10
27016;DHT22;14557;0.000;0.000;2022-11-11T14:21:49;21.80;86.10
27016;DHT22;14557;0.000;0.000;2022-11-11T14:24:21;21.70;89.40
27016;DHT22;14557;0.000;0.000;2022-11-11T14:27:00;21.70;87.60
27016;DHT22;14557;0.000;0.000;2022-11-11T14:29:30;21.80;87.50
27016;DHT22;14557;0.000;0.000;2022-11-11T14:34:36;21.70;83.70
27016;DHT22;14557;0.000;0.000;2022-11-11T14:39:49;21.70;82.90
27016;DHT22;14557;0.000;0.000;2022-11-11T14:46:01;21.60;82.30
27016;DHT22;14557;0.000;0.000;2022-11-11T14:47:55;21.60;82.00
27016;DHT22;14557;0.000;0.000;2022-11-11T14:52:57;21.50;81.60
27016;DHT22;14557;0.000;0.000;2022-11-11T14:55:33;21.50;81.40
27016;DHT22;14557;0.000;0.000;2022-11-11T14:58:00;21.50;81.00
27016;DHT22;14557;0.000;0.000;2022-11-11T15:00:30;21.50;80.90
27016;DHT22;14557;0.000;0.000;2022-11-11T15:06:07;21.50;80.50
27016;DHT22;14557;0.000;0.000;2022-11-11T15:08:20;21.50;80.80
27016;DHT22;14557;0.000;0.000;2022-11-11T15:18:29;21.40;79.10
27016;DHT22;14557;0.000;0.000;2022-11-11T15:21:01;21.40;79.10
27016;DHT22;14557;0.000;0.000;2022-11-11T15:33:52;21.30;78.90
27016;DHT22;14557;0.000;0.000;2022-11-11T15:36:40;21.30;78.80
27016;DHT22;14557;0.000;0.000;2022-11-11T15:39:09;21.30;78.70
27016;DHT22;14557;0.000;0.000;2022-11-11T15:41:37;21.30;78.60
27016;DHT22;14557;0.000;0.000;2022-11-11T15:46:59;21.30;81.80
27016;DHT22;14557;0.000;0.000;2022-11-11T15:52:23;21.30;81.20
27016;DHT22;14557;0.000;0.000;2022-11-11T15:54:49;21.30;81.30
27016;DHT22;14557;0.000;0.000;2022-11-11T15:59:41;21.30;82.20
27016;DHT22;14557;0.000;0.000;2022-11-11T16:02:11;21.30;82.60
27016;DHT22;14557;0.000;0.000;2022-11-11T16:04:38;21.40;84.40
27016;DHT22;14557;0.000;0.000;2022-11-11T16:07:20;21.40;82.30
27016;DHT22;14557;0.000;0.000;2022-11-11T16:09:46;21.40;81.60
27016;DHT22;14557;0.000;0.000;2022-11-11T16:12:12;21.40;80.70
27016;DHT22;14557;0.000;0.000;2022-11-11T16:14:41;21.40;80.10
27016;DHT22;14557;0.000;0.000;2022-11-11T16:17:09;21.40;80.00
27016;DHT22;14557;0.000;0.000;2022-11-11T16:19:39;21.40;79.70
27016;DHT22;14557;0.000;0.000;2022-11-11T16:22:14;21.40;79.20
27016;DHT22;14557;0.000;0.000;2022-11-11T16:24:41;21.40;78.80
27016;DHT22;14557;0.000;0.000;2022-11-11T16:27:14;21.40;78.70
27016;DHT22;14557;0.000;0.000;2022-11-11T16:29:40;21.40;78.70
27016;DHT22;14557;0.000;0.000;2022-11-11T16:35:21;21.40;78.40
27016;DHT22;14557;0.000;0.000;2022-11-11T16:37:50;21.40;79.10
27016;DHT22;14557;0.000;0.000;2022-11-11T16:43:12;21.30;78.10
27016;DHT22;14557;0.000;0.000;2022-11-11T16:45:48;21.30;78.30
27016;DHT22;14557;0.000;0.000;2022-11-11T16:53:33;21.30;79.90
27016;DHT22;14557;0.000;0.000;2022-11-11T16:56:03;21.40;90.10
27016;DHT22;14557;0.000;0.000;2022-11-11T16:58:29;21.40;87.00
27016;DHT22;14557;0.000;0.000;2022-11-11T17:00:58;21.40;85.80
27016;DHT22;14557;0.000;0.000;2022-11-11T17:03:25;21.40;83.30
27016;DHT22;14557;0.000;0.000;2022-11-11T17:10:58;21.30;81.20
27016;DHT22;14557;0.000;0.000;2022-11-11T17:13:24;21.30;81.30
27016;DHT22;14557;0.000;0.000;2022-11-11T17:15:51;21.30;80.70
27016;DHT22;14557;0.000;0.000;2022-11-11T17:18:17;21.30;80.30
27016;DHT22;14557;0.000;0.000;2022-11-11T17:20:42;21.30;80.30
27016;DHT22;14557;0.000;0.000;2022-11-11T17:23:08;21.30;81.20
27016;DHT22;14557;0.000;0.000;2022-11-11T17:25:34;21.30;83.30
27016;DHT22;14557;0.000;0.000;2022-11-11T17:27:59;21.30;83.20
27016;DHT22;14557;0.000;0.000;2022-11-11T17:30:25;21.30;82.30
27016;DHT22;14557;0.000;0.000;2022-11-11T17:32:51;21.30;81.40
27016;DHT22;14557;0.000;0.000;2022-11-11T17:35:16;21.30;81.40
27016;DHT22;14557;0.000;0.000;2022-11-11T17:37:42;21.30;82.80
27016;DHT22;14557;0.000;0.000;2022-11-11T17:40:08;21.30;83.60
27016;DHT22;14557;0.000;0.000;2022-11-11T17:42:35;21.30;86.50
27016;DHT22;14557;0.000;0.000;2022-11-11T17:45:01;21.40;89.00
27016;DHT22;14557;0.000;0.000;2022-11-11T17:47:27;21.50;91.80
27016;DHT22;14557;0.000;0.000;2022-11-11T17:49:52;21.90;87.90
27016;DHT22;14557;0.000;0.000;2022-11-11T17:52:18;22.10;84.50
27016;DHT22;14557;0.000;0.000;2022-11-11T17:54:44;22.20;85.00
27016;DHT22;14557;0.000;0.000;2022-11-11T17:57:09;22.30;88.70
27016;DHT22;14557;0.000;0.000;2022-11-11T17:59:35;22.50;85.50
27016;DHT22;14557;0.000;0.000;2022-11-11T18:02:01;22.70;88.30
27016;DHT22;14557;0.000;0.000;2022-11-11T18:04:27;22.90;88.20
27016;DHT22;14557;0.000;0.000;2022-11-11T18:06:53;23.20;86.70
27016;DHT22;14557;0.000;0.000;2022-11-11T18:09:18;23.40;85.10
27016;DHT22;14557;0.000;0.000;2022-11-11T18:11:44;23.70;82.70
27016;DHT22;14557;0.000;0.000;2022-11-11T18:14:10;23.80;80.90
27016;DHT22;14557;0.000;0.000;2022-11-11T18:16:36;24.10;78.10
27016;DHT22;14557;0.000;0.000;2022-11-11T18:19:02;24.40;75.10
27016;DHT22;14557;0.000;0.000;2022-11-11T18:21:29;24.40;74.30
27016;DHT22;14557;0.000;0.000;2022-11-11T18:23:55;24.50;74.70
27016;DHT22;14557;0.000;0.000;2022-11-11T18:26:22;24.40;75.00
27016;DHT22;14557;0.000;0.000;2022-11-11T18:28:48;24.30;73.70
27016;DHT22;14557;0.000;0.000;2022-11-11T18:31:14;24.20;72.80
27016;DHT22;14557;0.000;0.000;2022-11-11T18:33:40;24.10;72.30
27016;DHT22;14557;0.000;0.000;2022-11-11T18:36:11;24.00;72.30
27016;DHT22;14557;0.000;0.000;2022-11-11T18:38:37;23.90;72.00
27016;DHT22;14557;0.000;0.000;2022-11-11T18:41:10;23.80;72.50
27016;DHT22;14557;0.000;0.000;2022-11-11T18:43:39;23.60;72.80
27016;DHT22;14557;0.000;0.000;2022-11-11T18:46:06;23.60;72.20